Date,TemperatureHighF,TemperatureAvgF,TemperatureLowF,DewpointHighF,DewpointAvgF,DewpointLowF,HumidityHigh,HumidityAvg,HumidityLow,PressureMaxIn,PressureMinIn,WindSpeedMaxMPH,WindSpeedAvgMPH,GustSpeedMaxMPH,PrecipitationSumIn
2013-1-1,34,24,11,-100,-100,-100,0,0,100,0.00,40.00,0,-999,0,0.00
2013-1-2,32,23,16,-100,-100,-100,0,0,100,0.00,40.00,0,-999,0,0.00
2013-1-3,46,24,15,-100,-100,-100,0,0,100,0.00,40.00,0,-999,0,0.00
2013-1-4,46,36,26,-100,-100,-100,0,0,100,0.00,40.00,0,-999,0,0.00
2013-1-5,41,30,20,-100,-100,-100,0,0,100,0.00,40.00,0,-999,0,0.00
2013-1-6,48,34,17,-100,-100,-100,0,0,100,0.00,40.00,0,-999,0,0.00
2013-1-7,41,35,32,-100,-100,-100,0,0,100,0.00,40.00,0,-999,0,0.00
2013-1-8,38,35,32,-100,-100,-100,0,0,100,0.00,40.00,0,-999,0,0.00
2013-1-9,52,40,27,-100,-100,-100,0,0,100,0.00,40.00,0,-999,0,0.00
2013-1-10,50,33,24,-100,-100,-100,0,0,100,0.00,40.00,0,-999,0,0.00
2013-1-11,24,9,2,-100,-100,-100,0,0,100,0.00,40.00,0,-999,0,0.00
2013-1-12,9,2,-7,-100,-100,-100,0,0,100,0.00,40.00,0,-999,0,0.00
2013-1-13,15,0,-10,-100,-100,-100,0,0,100,0.00,40.00,0,-999,0,0.00
2013-1-14,15,8,-9,-100,-100,-100,0,0,100,0.00,40.00,0,-999,0,0.00
2013-1-15,29,23,14,-100,-100,-100,0,0,100,0.00,40.00,0,-999,0,0.00
2013-1-16,44,35,26,-100,-100,-100,0,0,100,0.00,40.00,0,-999,0,0.00
2013-1-17,47,38,29,-100,-100,-100,0,0,100,0.00,40.00,0,-999,0,0.00
2013-1-18,48,41,34,-100,-100,-100,0,0,100,0.00,40.00,0,-999,0,0.00
2013-1-19,44,39,34,-100,-100,-100,0,0,100,0.00,40.00,0,-999,0,0.00
2013-1-20,39,31,22,-100,-100,-100,0,0,100,0.00,40.00,0,-999,0,0.00
2013-1-21,48,41,34,-100,-100,-100,0,0,100,0.00,40.00,0,-999,0,0.00
2013-1-22,52,42,37,-100,-100,-100,0,0,100,0.00,40.00,0,-999,0,0.00
2013-1-23,54,43,32,-100,-100,-100,0,0,100,0.00,40.00,0,-999,0,0.00
2013-1-24,47,43,38,-100,-100,-100,0,0,100,0.00,40.00,0,-999,0,0.00
2013-1-25,47,42,37,-100,-100,-100,0,0,100,0.00,40.00,0,-999,0,0.00
2013-1-26,50,40,29,-100,-100,-100,0,0,100,0.00,40.00,0,-999,0,0.00
2013-1-27,39,33,23,-100,-100,-100,0,0,100,0.00,40.00,0,-999,0,0.00
2013-1-28,28,21,13,-100,-100,-100,0,0,100,0.00,40.00,0,-999,0,0.04
2013-1-29,25,17,5,-100,-100,-100,0,0,100,0.00,40.00,0,-999,0,0.04
2013-1-30,35,29,11,-100,-100,-100,0,0,100,0.00,40.00,0,-999,0,0.00
2013-1-31,39,36,34,-100,-100,-100,0,0,100,0.00,40.00,0,-999,0,0.00
2013-2-1,39,35,31,-100,-100,-100,0,0,100,0.00,40.00,0,-999,0,0.01
2013-2-2,42,36,32,-100,-100,-100,0,0,100,0.00,40.00,0,-999,0,0.01
2013-2-3,45,36,30,-100,-100,-100,0,0,100,0.00,40.00,0,-999,0,0.00
2013-2-4,41,38,34,-100,-100,-100,0,0,100,0.00,40.00,0,-999,0,0.00
2013-2-5,47,40,36,-100,-100,-100,0,0,100,0.00,40.00,0,-999,0,0.00
2013-2-6,40,36,29,-100,-100,-100,0,0,100,0.00,40.00,0,-999,0,0.00
2013-2-7,45,31,19,-100,-100,-100,0,0,100,0.00,40.00,0,-999,0,0.00
2013-2-8,42,29,19,-100,-100,-100,0,0,100,0.00,40.00,0,-999,0,0.00
2013-2-9,32,29,26,-100,-100,-100,0,0,100,0.00,40.00,0,-999,0,0.00
2013-2-10,27,23,9,-100,-100,-100,0,0,100,0.00,40.00,0,-999,0,0.00
2013-2-11,31,21,9,-100,-100,-100,0,0,100,0.00,40.00,0,-999,0,0.00
2013-2-12,36,29,23,-100,-100,-100,0,0,100,0.00,40.00,0,-999,0,0.00
2013-2-13,41,35,30,-100,-100,-100,0,0,100,0.00,40.00,0,-999,0,0.00
2013-2-14,34,24,16,-100,-100,-100,0,0,100,0.00,40.00,0,-999,0,0.00
2013-2-15,41,31,19,-100,-100,-100,0,0,100,0.00,40.00,0,-999,0,0.00
2013-2-16,43,38,33,-100,-100,-100,0,0,100,0.00,40.00,0,-999,0,0.00
2013-2-17,38,33,27,-100,-100,-100,0,0,100,0.00,40.00,0,-999,0,0.00
2013-2-18,35,28,21,-100,-100,-100,0,0,100,0.00,40.00,0,-999,0,0.00
2013-2-19,41,26,15,-100,-100,-100,0,0,100,0.00,40.00,0,-999,0,0.00
2013-2-20,37,27,21,-100,-100,-100,0,0,100,0.00,40.00,0,-999,0,0.00
2013-2-21,31,24,16,-100,-100,-100,0,0,100,0.00,40.00,0,-999,0,0.01
2013-2-22,34,27,20,-100,-100,-100,0,0,100,0.00,40.00,0,-999,0,0.01
2013-2-23,36,30,18,-100,-100,-100,0,0,100,0.00,40.00,0,-999,0,0.00
2013-2-24,37,24,13,-100,-100,-100,0,0,100,0.00,40.00,0,-999,0,0.03
2013-2-25,39,30,24,-100,-100,-100,0,0,100,0.00,40.00,0,-999,0,0.03
2013-2-26,35,28,23,-100,-100,-100,0,0,100,0.00,40.00,0,-999,0,0.00
2013-2-27,35,28,22,-100,-100,-100,0,0,100,0.00,40.00,0,-999,0,0.00
2013-2-28,40,31,23,-100,-100,-100,0,0,100,0.00,40.00,0,-999,0,0.00
2013-3-1,48,40,32,-100,-100,-100,0,0,100,0.00,40.00,0,-999,0,0.00
2013-3-2,56,45,38,-100,-100,-100,0,0,100,0.00,40.00,0,-999,0,0.00
2013-3-3,49,40,27,-100,-100,-100,0,0,100,0.00,40.00,0,-999,0,0.00
2013-3-4,31,24,12,-100,-100,-100,0,0,100,0.00,40.00,0,-999,0,0.00
2013-3-5,38,25,11,-100,-100,-100,0,0,100,0.00,40.00,0,-999,0,0.00
2013-3-6,53,33,17,-100,-100,-100,0,0,100,0.00,40.00,0,-999,0,0.02
2013-3-7,47,37,29,-100,-100,-100,0,0,100,0.00,40.00,0,-999,0,0.02
2013-3-8,47,35,26,-100,-100,-100,0,0,100,0.00,40.00,0,-999,0,0.00
2013-3-9,41,33,22,-100,-100,-100,0,0,100,0.00,40.00,0,-999,0,0.01
2013-3-10,52,39,22,-100,-100,-100,0,0,100,0.00,40.00,0,-999,0,0.01
2013-3-11,42,37,25,-100,-100,-100,0,0,100,0.00,40.00,0,-999,0,0.00
2013-3-12,47,33,16,-100,-100,-100,0,0,100,0.00,40.00,0,-999,0,0.00
2013-3-13,58,50,44,-100,-100,-100,0,0,100,0.00,40.00,0,-999,0,0.00
2013-3-14,64,53,43,-100,-100,-100,0,0,100,0.00,40.00,0,-999,0,0.00
2013-3-15,61,54,45,-100,-100,-100,0,0,100,0.00,40.00,0,-999,0,0.00
2013-3-16,51,42,33,-100,-100,-100,0,0,100,0.00,40.00,0,-999,0,0.07
2013-3-17,41,33,27,-100,-100,-100,0,0,100,0.00,40.00,0,-999,0,0.03
2013-3-18,33,28,23,-100,-100,-100,0,0,100,0.00,40.00,0,-999,0,0.00
2013-3-19,43,32,20,-100,-100,-100,0,0,100,0.00,40.00,0,-999,0,0.00
2013-3-20,52,35,18,-100,-100,-100,0,0,100,0.00,40.00,0,-999,0,0.00
2013-3-21,42,35,26,-100,-100,-100,0,0,100,0.00,40.00,0,-999,0,0.03
2013-3-22,30,24,16,-100,-100,-100,0,0,100,0.00,40.00,0,-999,0,0.02
2013-3-23,29,19,9,-100,-100,-100,0,0,100,0.00,40.00,0,-999,0,0.04
2013-3-24,30,18,5,-100,-100,-100,0,0,100,0.00,40.00,0,-999,0,0.02
2013-3-25,44,26,10,-100,-100,-100,0,0,100,0.00,40.00,0,-999,0,0.00
2013-3-26,52,37,26,-100,-100,-100,0,0,100,0.00,40.00,0,-999,0,0.00
2013-3-27,53,40,24,-100,-100,-100,0,0,100,0.00,40.00,0,-999,0,0.00
2013-3-28,57,46,31,-100,-100,-100,0,0,100,0.00,40.00,0,-999,0,0.00
2013-3-29,54,44,35,-100,-100,-100,0,0,100,0.00,40.00,0,-999,0,0.00
2013-3-30,56,43,32,-100,-100,-100,0,0,100,0.00,40.00,0,-999,0,0.05
2013-3-31,59,49,32,-100,-100,-100,0,0,100,0.00,40.00,0,-999,0,0.01
2013-4-1,54,40,23,-100,-100,-100,0,0,100,0.00,40.00,0,-999,0,0.00
2013-4-2,64,45,28,-100,-100,-100,0,0,100,0.00,40.00,0,-999,0,0.00
2013-4-3,59,49,40,-100,-100,-100,0,0,100,0.00,40.00,0,-999,0,0.00
2013-4-4,65,52,36,-100,-100,-100,0,0,100,0.00,40.00,0,-999,0,0.00
2013-4-5,56,49,43,-100,-100,-100,0,0,100,0.00,40.00,0,-999,0,0.01
2013-4-6,52,45,41,-100,-100,-100,0,0,100,0.00,40.00,0,-999,0,0.01
2013-4-7,49,44,38,-100,-100,-100,0,0,100,0.00,40.00,0,-999,0,0.00
2013-4-8,39,28,17,-100,-100,-100,0,0,100,0.00,40.00,0,-999,0,0.00
2013-4-9,31,20,14,-100,-100,-100,0,0,100,0.00,40.00,0,-999,0,0.00
2013-4-10,49,29,11,-100,-100,-100,0,0,100,0.00,40.00,0,-999,0,0.00
2013-4-11,55,44,30,-100,-100,-100,0,0,100,0.00,40.00,0,-999,0,0.00
2013-4-12,46,38,29,-100,-100,-100,0,0,100,0.00,40.00,0,-999,0,0.00
2013-4-13,46,38,29,-100,-100,-100,0,0,100,0.00,40.00,0,-999,0,0.12
2013-4-14,36,30,25,-100,-100,-100,0,0,100,0.00,40.00,0,-999,0,0.01
2013-4-15,29,24,20,-100,-100,-100,0,0,100,0.00,40.00,0,-999,0,0.00
2013-4-16,28,23,20,-100,-100,-100,0,0,100,0.00,40.00,0,-999,0,0.00
2013-4-17,28,22,17,-100,-100,-100,0,0,100,0.00,40.00,0,-999,0,0.00
2013-4-18,45,30,13,-100,-100,-100,0,0,100,0.00,40.00,0,-999,0,0.00
2013-4-19,49,42,37,-100,-100,-100,0,0,100,0.00,40.00,0,-999,0,0.00
2013-4-20,52,44,36,-100,-100,-100,0,0,100,0.00,40.00,0,-999,0,0.00
2013-4-21,53,41,24,-100,-100,-100,0,0,100,0.00,40.00,0,-999,0,0.00
2013-4-22,29,23,16,-100,-100,-100,0,0,100,0.00,40.00,0,-999,0,0.16
2013-4-23,38,24,13,-100,-100,-100,0,0,100,0.00,40.00,0,-999,0,0.01
2013-4-24,50,38,20,-100,-100,-100,0,0,100,0.00,40.00,0,-999,0,0.00
2013-4-25,58,48,38,-100,-100,-100,0,0,100,0.00,40.00,0,-999,0,0.00
2013-4-26,65,51,31,-100,-100,-100,0,0,100,0.00,40.00,0,-999,0,0.00
2013-4-27,68,56,43,-100,-100,-100,0,0,100,0.00,40.00,0,-999,0,0.00
2013-4-28,59,56,50,-100,-100,-100,0,0,100,0.00,40.00,0,-999,0,0.00
2013-4-29,57,51,45,-100,-100,-100,0,0,100,0.00,40.00,0,-999,0,0.00
2013-4-30,41,33,28,-100,-100,-100,0,0,100,0.00,40.00,0,-999,0,0.09
2013-5-1,41,31,25,-100,-100,-100,0,0,100,0.00,40.00,0,-999,0,0.03
2013-5-2,58,40,21,-100,-100,-100,0,0,100,0.00,40.00,0,-999,0,0.00
2013-5-3,55,46,39,-100,-100,-100,0,0,100,0.00,40.00,0,-999,0,0.01
2013-5-4,50,44,39,-100,-100,-100,0,0,100,0.00,40.00,0,-999,0,0.10
2013-5-5,56,47,40,-100,-100,-100,0,0,100,0.00,40.00,0,-999,0,0.01
2013-5-6,67,51,36,-100,-100,-100,0,0,100,0.00,40.00,0,-999,0,0.00
2013-5-7,69,55,42,-100,-100,-100,0,0,100,0.00,40.00,0,-999,0,0.00
2013-5-8,67,58,47,-100,-100,-100,0,0,100,0.00,40.00,0,-999,0,0.00
2013-5-9,68,54,42,-100,-100,-100,0,0,100,0.00,40.00,0,-999,0,0.00
2013-5-10,67,55,41,-100,-100,-100,0,0,100,0.00,40.00,0,-999,0,0.00
2013-5-11,72,55,36,-100,-100,-100,0,0,100,0.00,40.00,0,-999,0,0.00
2013-5-12,76,65,51,-100,-100,-100,0,0,100,0.00,40.00,0,-999,0,0.00
2013-5-13,80,70,47,-100,-100,-100,0,0,100,0.00,40.00,0,-999,0,0.00
2013-5-14,79,71,56,-100,-100,-100,0,0,100,0.00,40.00,0,-999,0,0.00
2013-5-15,70,57,38,-100,-100,-100,0,0,100,0.00,40.00,0,-999,0,0.00
2013-5-16,64,55,47,-100,-100,-100,0,0,100,0.00,40.00,0,-999,0,0.00
2013-5-17,60,52,46,-100,-100,-100,0,0,100,0.00,40.00,0,-999,0,0.76
2013-5-18,55,48,44,-100,-100,-100,0,0,100,0.00,40.00,0,-999,0,0.65
2013-5-19,51,46,44,-100,-100,-100,0,0,100,0.00,40.00,0,-999,0,0.52
2013-5-20,58,49,44,-100,-100,-100,0,0,100,0.00,40.00,0,-999,0,0.18
2013-5-21,63,54,36,-100,-100,-100,0,0,100,0.00,40.00,0,-999,0,0.01
2013-5-22,59,50,39,-100,-100,-100,0,0,100,0.00,40.00,0,-999,0,0.92
2013-5-23,66,55,47,-100,-100,-100,0,0,100,0.00,40.00,0,-999,0,0.69
2013-5-24,65,55,45,-100,-100,-100,0,0,100,0.00,40.00,0,-999,0,0.11
2013-5-25,72,57,41,-100,-100,-100,0,0,100,0.00,40.00,0,-999,0,0.00
2013-5-26,66,57,45,-100,-100,-100,0,0,100,0.00,40.00,0,-999,0,0.12
2013-5-27,61,54,46,-100,-100,-100,0,0,100,0.00,40.00,0,-999,0,0.03
2013-5-28,63,54,48,-100,-100,-100,0,0,100,0.00,40.00,0,-999,0,0.03
2013-5-29,52,49,45,-100,-100,-100,0,0,100,0.00,40.00,0,-999,0,0.33
2013-5-30,50,49,48,-100,-100,-100,0,0,100,0.00,40.00,0,-999,0,0.33
2013-5-31,56,54,52,-100,-100,-100,0,0,100,0.00,40.00,0,-999,0,0.00
2013-6-1,63,54,38,-100,-100,-100,0,0,100,0.00,40.00,0,-999,0,0.00
2013-6-2,71,59,46,-100,-100,-100,0,0,100,0.00,40.00,0,-999,0,0.09
2013-6-3,59,53,46,-100,-100,-100,0,0,100,0.00,40.00,0,-999,0,0.21
2013-6-4,49,45,41,-100,-100,-100,0,0,100,0.00,40.00,0,-999,0,0.00
2013-6-5,66,53,38,-100,-100,-100,0,0,100,0.00,40.00,0,-999,0,0.00
2013-6-6,73,60,42,-100,-100,-100,0,0,100,0.00,40.00,0,-999,0,0.00
2013-6-7,76,63,52,-100,-100,-100,0,0,100,0.00,40.00,0,-999,0,0.11
2013-6-8,75,62,50,-100,-100,-100,0,0,100,0.00,40.00,0,-999,0,0.22
2013-6-9,82,66,42,-100,-100,-100,0,0,100,0.00,40.00,0,-999,0,0.00
2013-6-10,78,67,50,-100,-100,-100,0,0,100,0.00,40.00,0,-999,0,0.00
2013-6-11,77,63,47,-100,-100,-100,0,0,100,0.00,40.00,0,-999,0,0.00
2013-6-12,73,60,45,-100,-100,-100,0,0,100,0.00,40.00,0,-999,0,0.00
2013-6-13,79,64,52,-100,-100,-100,0,0,100,0.00,40.00,0,-999,0,0.09
2013-6-14,64,54,41,-100,-100,-100,0,0,100,0.00,40.00,0,-999,0,0.09
2013-6-15,77,60,43,-100,-100,-100,0,0,100,0.00,40.00,0,-999,0,0.00
2013-6-16,73,58,43,-100,-100,-100,0,0,100,0.00,40.00,0,-999,0,0.00
2013-6-17,76,63,45,-100,-100,-100,0,0,100,0.00,40.00,0,-999,0,0.00
2013-6-18,82,65,50,-100,-100,-100,0,0,100,0.00,40.00,0,-999,0,0.00
2013-6-19,85,65,51,-100,-100,-100,0,0,100,0.00,40.00,0,-999,0,0.00
2013-6-20,68,54,44,-100,-100,-100,0,0,100,0.00,40.00,0,-999,0,0.00
2013-6-22,64,59,52,-100,-100,-100,0,0,100,0.00,40.00,0,-999,0,0.02
2013-6-23,77,61,41,-100,-100,-100,0,0,100,0.00,40.00,0,-999,0,0.00
2013-6-24,78,64,50,-100,-100,-100,0,0,100,0.00,40.00,0,-999,0,0.00
2013-6-25,74,65,58,-100,-100,-100,0,0,100,0.00,40.00,0,-999,0,0.00
2013-6-26,79,68,58,-100,-100,-100,0,0,100,0.00,40.00,0,-999,0,0.00
2013-6-27,90,71,47,-100,-100,-100,0,0,100,0.00,40.00,0,-999,0,0.00
2013-6-28,85,71,55,-100,-100,-100,0,0,100,0.00,40.00,0,-999,0,0.00
2013-6-29,86,70,55,-100,-100,-100,0,0,100,0.00,40.00,0,-999,0,0.01
2013-6-30,85,69,57,-100,-100,-100,0,0,100,0.00,40.00,0,-999,0,0.28
2013-7-1,84,72,57,-100,-100,-100,0,0,100,0.00,40.00,0,-999,0,0.04
2013-7-2,88,74,54,-100,-100,-100,0,0,100,0.00,40.00,0,-999,0,0.00
2013-7-3,89,77,61,-100,-100,-100,0,0,100,0.00,40.00,0,-999,0,0.00
2013-7-4,85,72,59,-100,-100,-100,0,0,100,0.00,40.00,0,-999,0,0.13
2013-7-5,79,66,56,-100,-100,-100,0,0,100,0.00,40.00,0,-999,0,0.15
2013-7-6,81,63,55,-100,-100,-100,0,0,100,0.00,40.00,0,-999,0,0.15
2013-7-7,86,67,55,-100,-100,-100,0,0,100,0.00,40.00,0,-999,0,0.15
2013-7-8,85,67,60,-100,-100,-100,0,0,100,0.00,40.00,0,-999,0,0.00
2013-7-9,81,67,50,-100,-100,-100,0,0,100,0.00,40.00,0,-999,0,0.00
2013-7-10,91,72,55,-100,-100,-100,0,0,100,0.00,40.00,0,-999,0,0.00
2013-7-11,90,72,59,-100,-100,-100,0,0,100,0.00,40.00,0,-999,0,0.03
2013-7-12,84,68,60,-100,-100,-100,0,0,100,0.00,40.00,0,-999,0,0.05
2013-7-13,82,68,53,-100,-100,-100,0,0,100,0.00,40.00,0,-999,0,0.00
2013-7-14,80,67,50,-100,-100,-100,0,0,100,0.00,40.00,0,-999,0,0.00
2013-7-15,88,73,58,-100,-100,-100,0,0,100,0.00,40.00,0,-999,0,0.00
2013-7-16,73,65,55,-100,-100,-100,0,0,100,0.00,40.00,0,-999,0,0.17
2013-7-17,86,70,56,-100,-100,-100,0,0,100,0.00,40.00,0,-999,0,0.17
2013-7-18,86,78,61,-100,-100,-100,0,0,100,0.00,40.00,0,-999,0,0.02
2013-7-19,88,72,55,-100,-100,-100,0,0,100,0.00,40.00,0,-999,0,0.00
2013-7-20,85,71,54,-100,-100,-100,0,0,100,0.00,40.00,0,-999,0,0.00
2013-7-21,90,74,57,-100,-100,-100,0,0,100,0.00,40.00,0,-999,0,0.00
2013-7-22,89,74,55,-100,-100,-100,0,0,100,0.00,40.00,0,-999,0,0.00
2013-7-23,86,73,58,-100,-100,-100,0,0,100,0.00,40.00,0,-999,0,0.00
2013-7-24,88,71,54,-100,-100,-100,0,0,100,0.00,40.00,0,-999,0,0.00
2013-7-25,81,68,52,-100,-100,-100,0,0,100,0.00,40.00,0,-999,0,0.02
2013-7-26,84,70,57,-100,-100,-100,0,0,100,0.00,40.00,0,-999,0,0.02
2013-7-27,80,69,58,-100,-100,-100,0,0,100,0.00,40.00,0,-999,0,0.00
2013-7-28,77,66,56,-100,-100,-100,0,0,100,0.00,40.00,0,-999,0,0.26
2013-7-29,75,62,50,-100,-100,-100,0,0,100,0.00,40.00,0,-999,0,0.04
2013-7-30,78,64,56,-100,-100,-100,0,0,100,0.00,40.00,0,-999,0,0.08
2013-7-31,81,66,48,-100,-100,-100,0,0,100,0.00,40.00,0,-999,0,0.07
2013-8-1,84,71,58,-100,-100,-100,0,0,100,0.00,40.00,0,-999,0,0.01
2013-8-2,84,69,52,-100,-100,-100,0,0,100,0.00,40.00,0,-999,0,0.01
2013-8-3,80,64,47,-100,-100,-100,0,0,100,0.00,40.00,0,-999,0,0.00
2013-8-4,88,69,50,-100,-100,-100,0,0,100,0.00,40.00,0,-999,0,0.00
2013-8-5,90,70,53,-100,-100,-100,0,0,100,0.00,40.00,0,-999,0,0.00
2013-8-6,79,67,50,-100,-100,-100,0,0,100,0.00,40.00,0,-999,0,0.00
2013-8-7,83,67,49,-100,-100,-100,0,0,100,0.00,40.00,0,-999,0,0.00
2013-8-8,79,65,49,-100,-100,-100,0,0,100,0.00,40.00,0,-999,0,0.00
2013-8-9,73,62,54,-100,-100,-100,0,0,100,0.00,40.00,0,-999,0,0.02
2013-8-10,84,66,50,-100,-100,-100,0,0,100,0.00,40.00,0,-999,0,0.01
2013-8-11,84,67,54,-100,-100,-100,0,0,100,0.00,40.00,0,-999,0,0.00
2013-8-12,83,67,52,-100,-100,-100,0,0,100,0.00,40.00,0,-999,0,0.00
2013-8-13,80,64,54,-100,-100,-100,0,0,100,0.00,40.00,0,-999,0,0.08
2013-8-14,82,67,52,-100,-100,-100,0,0,100,0.00,40.00,0,-999,0,0.08
2013-8-15,86,68,52,-100,-100,-100,0,0,100,0.00,40.00,0,-999,0,0.00
2013-8-16,91,73,56,-100,-100,-100,0,0,100,0.00,40.00,0,-999,0,0.00
2013-8-17,92,75,61,-100,-100,-100,0,0,100,0.00,40.00,0,-999,0,0.00
2013-8-18,90,71,57,-100,-100,-100,0,0,100,0.00,40.00,0,-999,0,0.00
2013-8-19,90,72,58,-100,-100,-100,0,0,100,0.00,40.00,0,-999,0,0.00
2013-8-20,89,75,62,-100,-100,-100,0,0,100,0.00,40.00,0,-999,0,0.00
2013-8-21,81,69,61,-100,-100,-100,0,0,100,0.00,40.00,0,-999,0,0.06
2013-8-22,81,66,57,-100,-100,-100,0,0,100,0.00,40.00,0,-999,0,0.06
2013-8-23,84,69,57,-100,-100,-100,0,0,100,0.00,40.00,0,-999,0,0.03
2013-8-24,77,67,60,-100,-100,-100,0,0,100,0.00,40.00,0,-999,0,0.03
2013-8-25,84,70,61,-100,-100,-100,0,0,100,0.00,40.00,0,-999,0,0.01
2013-8-26,83,70,62,-100,-100,-100,0,0,100,0.00,40.00,0,-999,0,0.03
2013-8-27,83,66,58,-100,-100,-100,0,0,100,0.00,40.00,0,-999,0,0.03
2013-8-28,86,78,68,-100,-100,-100,0,0,100,0.00,40.00,0,-999,0,0.04
2013-8-29,82,68,57,-100,-100,-100,0,0,100,0.00,40.00,0,-999,0,0.03
2013-8-30,85,70,56,-100,-100,-100,0,0,100,0.00,40.00,0,-999,0,0.03
2013-8-31,79,67,52,-100,-100,-100,0,0,100,0.00,40.00,0,-999,0,0.00
2013-9-1,88,67,49,-100,-100,-100,0,0,100,0.00,40.00,0,-999,0,0.00
2013-9-2,69,63,56,-100,-100,-100,0,0,100,0.00,40.00,0,-999,0,0.01
2013-9-3,83,73,63,-100,-100,-100,0,0,100,0.00,40.00,0,-999,0,0.01
2013-9-4,86,71,55,-100,-100,-100,0,0,100,0.00,40.00,0,-999,0,0.04
2013-9-5,86,70,60,-100,-100,-100,0,0,100,0.00,40.00,0,-999,0,0.18
2013-9-6,82,66,58,-100,-100,-100,0,0,100,0.00,40.00,0,-999,0,0.41
2013-9-7,83,67,57,-100,-100,-100,0,0,100,0.00,40.00,0,-999,0,0.14
2013-9-8,74,65,60,-100,-100,-100,0,0,100,0.00,40.00,0,-999,0,0.00
2013-9-9,72,63,55,-100,-100,-100,0,0,100,0.00,40.00,0,-999,0,0.00
2013-9-10,74,62,49,-100,-100,-100,0,0,100,0.00,40.00,0,-999,0,0.00
2013-9-11,77,63,49,-100,-100,-100,0,0,100,0.00,40.00,0,-999,0,0.00
2013-9-12,66,59,50,-100,-100,-100,0,0,100,0.00,40.00,0,-999,0,0.06
2013-9-13,72,58,49,-100,-100,-100,0,0,100,0.00,40.00,0,-999,0,0.05
2013-9-14,60,55,51,-100,-100,-100,0,0,100,0.00,40.00,0,-999,0,0.95
2013-9-15,62,57,53,-100,-100,-100,0,0,100,0.00,40.00,0,-999,0,0.84
2013-9-16,80,63,50,-100,-100,-100,0,0,100,0.00,40.00,0,-999,0,0.01
2013-9-17,69,59,51,-100,-100,-100,0,0,100,0.00,40.00,0,-999,0,0.46
2013-9-18,51,48,45,-100,-100,-100,0,0,100,0.00,40.00,0,-999,0,0.46
2013-9-19,61,50,41,-100,-100,-100,0,0,100,0.00,40.00,0,-999,0,0.02
2013-9-20,70,53,40,-100,-100,-100,0,0,100,0.00,40.00,0,-999,0,0.00
2013-9-21,78,60,42,-100,-100,-100,0,0,100,0.00,40.00,0,-999,0,0.00
2013-9-22,70,59,51,-100,-100,-100,0,0,100,0.00,40.00,0,-999,0,0.00
2013-9-23,62,56,50,-100,-100,-100,0,0,100,0.00,40.00,0,-999,0,0.00
2013-9-24,70,57,40,-100,-100,-100,0,0,100,0.00,40.00,0,-999,0,0.00
2013-9-25,51,45,39,-100,-100,-100,0,0,100,0.00,40.00,0,-999,0,0.77
2013-9-26,45,40,35,-100,-100,-100,0,0,100,0.00,40.00,0,-999,0,0.05
2013-9-27,45,38,34,-100,-100,-100,0,0,100,0.00,40.00,0,-999,0,0.10
2013-9-28,53,47,41,-100,-100,-100,0,0,100,0.00,40.00,0,-999,0,0.02
2013-9-29,59,54,48,-100,-100,-100,0,0,100,0.00,40.00,0,-999,0,0.00
2013-9-30,58,53,47,-100,-100,-100,0,0,100,0.00,40.00,0,-999,0,0.06
2013-10-1,63,55,49,-100,-100,-100,0,0,100,0.00,40.00,0,-999,0,0.02
2013-10-2,52,45,37,-100,-100,-100,0,0,100,0.00,40.00,0,-999,0,0.20
2013-10-3,40,37,30,-100,-100,-100,0,0,100,0.00,40.00,0,-999,0,0.13
2013-10-4,37,31,26,-100,-100,-100,0,0,100,0.00,40.00,0,-999,0,0.01
2013-10-5,52,42,25,-100,-100,-100,0,0,100,0.00,40.00,0,-999,0,0.01
2013-10-6,66,55,46,-100,-100,-100,0,0,100,0.00,40.00,0,-999,0,0.00
2013-10-7,74,57,43,-100,-100,-100,0,0,100,0.00,40.00,0,-999,0,0.00
2013-10-8,61,47,35,-100,-100,-100,0,0,100,0.00,40.00,0,-999,0,0.00
2013-10-9,47,39,29,-100,-100,-100,0,0,100,0.00,40.00,0,-999,0,0.00
2013-10-10,52,43,34,-100,-100,-100,0,0,100,0.00,40.00,0,-999,0,0.00
2013-10-11,49,43,33,-100,-100,-100,0,0,100,0.00,40.00,0,-999,0,0.00
2013-10-12,51,37,26,-100,-100,-100,0,0,100,0.00,40.00,0,-999,0,0.00
2013-10-13,44,37,29,-100,-100,-100,0,0,100,0.00,40.00,0,-999,0,0.06
2013-10-14,37,35,33,-100,-100,-100,0,0,100,0.00,40.00,0,-999,0,0.09
2013-10-15,48,34,25,-100,-100,-100,0,0,100,0.00,40.00,0,-999,0,0.01
2013-10-16,52,42,25,-100,-100,-100,0,0,100,0.00,40.00,0,-999,0,0.00
2013-10-17,40,33,31,-100,-100,-100,0,0,100,0.00,40.00,0,-999,0,0.05
2013-10-18,49,37,21,-100,-100,-100,0,0,100,0.00,40.00,0,-999,0,0.04
2013-10-19,57,48,41,-100,-100,-100,0,0,100,0.00,40.00,0,-999,0,0.00
2013-10-20,49,42,30,-100,-100,-100,0,0,100,0.00,40.00,0,-999,0,0.00
2013-10-21,60,49,30,-100,-100,-100,0,0,100,0.00,40.00,0,-999,0,0.00
2013-10-22,64,53,44,-100,-100,-100,0,0,100,0.00,40.00,0,-999,0,0.00
2013-10-23,58,47,34,-100,-100,-100,0,0,100,0.00,40.00,0,-999,0,0.00
2013-10-24,57,40,29,-100,-100,-100,0,0,100,0.00,40.00,0,-999,0,0.00
2013-10-25,68,47,34,-100,-100,-100,0,0,100,0.00,40.00,0,-999,0,0.00
2013-10-26,65,50,35,-100,-100,-100,0,0,100,0.00,40.00,0,-999,0,0.00
2013-10-27,60,51,43,-100,-100,-100,0,0,100,0.00,40.00,0,-999,0,0.00
2013-10-28,43,31,23,-100,-100,-100,0,0,100,0.00,40.00,0,-999,0,0.00
2013-10-29,31,27,23,-100,-100,-100,0,0,100,0.00,40.00,0,-999,0,0.00
2013-10-30,46,38,30,-100,-100,-100,0,0,100,0.00,40.00,0,-999,0,0.00
2013-10-31,45,40,35,-100,-100,-100,0,0,100,0.00,40.00,0,-999,0,0.02
2013-11-1,47,41,35,-100,-100,-100,0,0,100,0.00,40.00,0,-999,0,0.02
2013-11-2,57,46,38,-100,-100,-100,0,0,100,0.00,40.00,0,-999,0,0.00
2013-11-3,48,35,25,-100,-100,-100,0,0,100,0.00,40.00,0,-999,0,0.02
2013-11-4,34,26,18,-100,-100,-100,0,0,100,0.00,40.00,0,-999,0,0.02
2013-11-5,34,27,19,-100,-100,-100,0,0,100,0.00,40.00,0,-999,0,0.00
2013-11-6,40,35,28,-100,-100,-100,0,0,100,0.00,40.00,0,-999,0,0.00
2013-11-7,51,44,36,-100,-100,-100,0,0,100,0.00,40.00,0,-999,0,0.00
2013-11-8,47,42,40,-100,-100,-100,0,0,100,0.00,40.00,0,-999,0,0.07
2013-11-9,45,39,27,-100,-100,-100,0,0,100,0.00,40.00,0,-999,0,0.04
2013-11-10,59,47,37,-100,-100,-100,0,0,100,0.00,40.00,0,-999,0,0.00
2013-11-11,46,37,26,-100,-100,-100,0,0,100,0.00,40.00,0,-999,0,0.00
2013-11-12,64,43,26,-100,-100,-100,0,0,100,0.00,40.00,0,-999,0,0.00
2013-11-13,56,46,35,-100,-100,-100,0,0,100,0.00,40.00,0,-999,0,0.00
2013-11-14,48,42,30,-100,-100,-100,0,0,100,0.00,40.00,0,-999,0,0.00
2013-11-15,42,37,27,-100,-100,-100,0,0,100,0.00,40.00,0,-999,0,0.00
2013-11-16,38,33,27,-100,-100,-100,0,0,100,0.00,40.00,0,-999,0,0.00
2013-11-17,36,32,26,-100,-100,-100,0,0,100,0.00,40.00,0,-999,0,0.00
2013-11-18,51,43,35,-100,-100,-100,0,0,100,0.00,40.00,0,-999,0,0.00
2013-11-19,51,46,42,-100,-100,-100,0,0,100,0.00,40.00,0,-999,0,0.00
2013-11-20,48,31,9,-100,-100,-100,0,0,100,0.00,40.00,0,-999,0,0.00
2013-11-21,20,12,1,-100,-100,-100,0,0,100,0.00,40.00,0,-999,0,0.10
2013-11-22,33,17,9,-100,-100,-100,0,0,100,0.00,40.00,0,-999,0,0.01
2013-11-23,42,20,9,-100,-100,-100,0,0,100,0.00,40.00,0,-999,0,0.01
2013-11-24,50,31,23,-100,-100,-100,0,0,100,0.00,40.00,0,-999,0,0.00
2013-11-25,41,31,19,-100,-100,-100,0,0,100,0.00,40.00,0,-999,0,0.00
2013-11-26,51,40,22,-100,-100,-100,0,0,100,0.00,40.00,0,-999,0,0.00
2013-11-27,54,40,24,-100,-100,-100,0,0,100,0.00,40.00,0,-999,0,0.00
2013-11-28,46,36,24,-100,-100,-100,0,0,100,0.00,40.00,0,-999,0,0.00
2013-11-29,52,43,38,-100,-100,-100,0,0,100,0.00,40.00,0,-999,0,0.00
2013-11-30,47,42,39,-100,-100,-100,0,0,100,0.00,40.00,0,-999,0,0.00
2013-12-1,43,40,37,-100,-100,-100,0,0,100,0.00,40.00,0,-999,0,0.10
2013-12-2,44,40,24,-100,-100,-100,0,0,100,0.00,40.00,0,-999,0,0.08
2013-12-3,24,11,2,-100,-100,-100,0,0,100,0.00,40.00,0,-999,0,0.01
2013-12-4,4,-1,-5,-100,-100,-100,0,0,100,0.00,40.00,0,-999,0,0.00
2013-12-5,5,-6,-14,-100,-100,-100,0,0,100,0.00,40.00,0,-999,0,0.00
2013-12-6,-2,-10,-17,-100,-100,-100,0,0,100,0.00,40.00,0,-999,0,0.00
2013-12-7,-3,-10,-19,-100,-100,-100,0,0,100,0.00,40.00,0,-999,0,0.00
2013-12-8,12,0,-15,-100,-100,-100,0,0,100,0.00,40.00,0,-999,0,0.00
2013-12-9,16,10,3,-100,-100,-100,0,0,100,0.00,40.00,0,-999,0,0.00
2013-12-10,22,19,16,-100,-100,-100,0,0,100,0.00,40.00,0,-999,0,0.00
2013-12-11,33,26,20,-100,-100,-100,0,0,100,0.00,40.00,0,-999,0,0.00
2013-12-12,46,37,31,-100,-100,-100,0,0,100,0.00,40.00,0,-999,0,0.00
2013-12-13,37,33,28,-100,-100,-100,0,0,100,0.00,40.00,0,-999,0,0.00
2013-12-14,38,34,31,-100,-100,-100,0,0,100,0.00,40.00,0,-999,0,0.00
2013-12-15,48,41,35,-100,-100,-100,0,0,100,0.00,40.00,0,-999,0,0.00
2013-12-16,47,43,41,-100,-100,-100,0,0,100,0.00,40.00,0,-999,0,0.00
2013-12-17,51,44,36,-100,-100,-100,0,0,100,0.00,40.00,0,-999,0,0.00
2013-12-18,50,44,31,-100,-100,-100,0,0,100,0.00,40.00,0,-999,0,0.00
2013-12-19,31,17,-3,-100,-100,-100,0,0,100,0.00,40.00,0,-999,0,0.00
2013-12-20,28,19,-4,-100,-100,-100,0,0,100,0.00,40.00,0,-999,0,0.00
2013-12-21,32,24,17,-100,-100,-100,0,0,100,0.00,40.00,0,-999,0,0.00
2013-12-22,35,24,11,-100,-100,-100,0,0,100,0.00,40.00,0,-999,0,0.00
2013-12-23,41,33,10,-100,-100,-100,0,0,100,0.00,40.00,0,-999,0,0.00
2013-12-24,40,32,28,-100,-100,-100,0,0,100,0.00,40.00,0,-999,0,0.07
2013-12-25,42,33,28,-100,-100,-100,0,0,100,0.00,40.00,0,-999,0,0.05
2013-12-26,48,41,34,-100,-100,-100,0,0,100,0.00,40.00,0,-999,0,0.00
2013-12-27,54,45,39,-100,-100,-100,0,0,100,0.00,40.00,0,-999,0,0.00
2013-12-28,46,31,11,-100,-100,-100,0,0,100,0.00,40.00,0,-999,0,0.00
2013-12-29,34,26,9,-100,-100,-100,0,0,100,0.00,40.00,0,-999,0,0.00
2013-12-30,38,34,30,-100,-100,-100,0,0,100,0.00,40.00,0,-999,0,0.00
2013-12-31,45,38,30,-100,-100,-100,0,0,100,0.00,40.00,0,-999,0,0.00
2014-1-1,35,32,30,-100,-100,-100,0,0,100,0.00,40.00,0,-999,0,0.00
2014-1-2,39,34,30,-100,-100,-100,0,0,100,0.00,40.00,0,-999,0,0.00